Time;durP1;ratioP1;P1;durP2;ratioP2;P2;SDS_P1;SDS_P2;PMS_P1;PMS_P2;Temp;Humidity;BMP_temperature;BMP_pressure;BME280_temperature;BME280_humidity;BME280_pressure;Samples;Min_cycle;Max_cycle;Signal;HPM_P1;HPM_P2
2022/05/24 00:00:14;;;;;;;;;;;;;;;23.30;48.53;99990.22;5073120;28;19942;-84
2022/05/24 00:02:40;;;;;;;;;;;;;;;23.31;48.45;99989.91;5073074;28;20365;-87
2022/05/24 00:05:06;;;;;;;;;;;;;;;23.28;48.77;99982.31;5074711;28;20014;-87
2022/05/24 00:07:31;;;;;;;;;;;;;;;23.30;48.67;99981.97;5073874;28;20002;-87
2022/05/24 00:09:56;;;;;;;;;;;;;;;23.28;48.71;99985.09;5073063;28;20346;-86
2022/05/24 00:12:22;;;;;;;;;;;;;;;23.28;48.67;99985.09;5072682;28;19920;-86
2022/05/24 00:17:30;;;;;;;;;;;;;;;23.27;48.74;99977.94;5073427;28;19969;-85
2022/05/24 00:19:56;;;;;;;;;;;;;;;23.28;48.61;99970.47;5072873;28;19934;-86
2022/05/24 00:22:21;;;;;;;;;;;;;;;23.28;48.69;99976.81;5072901;28;20329;-87
2022/05/24 00:24:46;;;;;;;;;;;;;;;23.27;48.19;99977.16;5072959;28;19925;-86
2022/05/24 00:27:11;;;;;;;;;;;;;;;23.26;48.42;99973.59;5073484;28;19931;-87
2022/05/24 00:29:37;;;;;;;;;;;;;;;23.26;48.81;99972.81;5072651;28;20418;-86
2022/05/24 00:32:02;;;;;;;;;;;;;;;23.25;48.53;99980.25;5056523;28;20025;-86
2022/05/24 00:34:27;;;;;;;;;;;;;;;23.25;48.61;99979.44;5055953;28;19931;-86
2022/05/24 00:36:53;;;;;;;;;;;;;;;23.25;48.22;99973.94;5072747;28;19943;-85
2022/05/24 00:39:18;;;;;;;;;;;;;;;23.25;48.63;99971.97;5072781;28;19928;-86
2022/05/24 00:42:09;;;;;;;;;;;;;;;23.25;48.41;99982.19;5056105;28;19920;-86
2022/05/24 00:44:40;;;;;;;;;;;;;;;23.25;48.53;99983.00;5069230;28;19973;-87
2022/05/24 00:47:05;;;;;;;;;;;;;;;23.24;48.61;99978.66;5073527;28;20333;-86
2022/05/24 00:49:51;;;;;;;;;;;;;;;23.24;48.64;99975.09;5072433;28;20468;-87
2022/05/24 00:52:17;;;;;;;;;;;;;;;23.24;48.56;99984.16;5071811;28;20371;-84
2022/05/24 00:54:44;;;;;;;;;;;;;;;23.24;48.54;99972.34;5072653;28;19923;-86
2022/05/24 00:57:27;;;;;;;;;;;;;;;23.24;48.20;99972.34;5073784;28;20318;-86
2022/05/24 00:59:55;;;;;;;;;;;;;;;23.23;48.51;99957.75;5072099;28;19937;-86
2022/05/24 01:02:21;;;;;;;;;;;;;;;23.23;48.19;99959.69;5073256;28;20033;-86
2022/05/24 01:04:46;;;;;;;;;;;;;;;23.23;48.44;99959.69;5056326;28;20350;-86
2022/05/24 01:07:11;;;;;;;;;;;;;;;23.22;48.49;99967.16;5073673;28;20079;-86
2022/05/24 01:09:45;;;;;;;;;;;;;;;23.23;48.56;99965.22;5072339;28;19925;-85
2022/05/24 01:12:13;;;;;;;;;;;;;;;23.21;48.41;99964.75;5073633;28;19927;-86
2022/05/24 01:14:39;;;;;;;;;;;;;;;23.21;48.31;99970.25;5072210;28;19943;-87
2022/05/24 01:17:04;;;;;;;;;;;;;;;23.21;48.24;99962.00;5072529;28;19966;-86
2022/05/24 01:19:44;;;;;;;;;;;;;;;23.21;48.46;99959.25;5056194;28;19935;-86
2022/05/24 01:22:28;;;;;;;;;;;;;;;23.20;48.45;99977.72;5073565;28;19934;-86
2022/05/24 01:25:05;;;;;;;;;;;;;;;23.20;48.53;99976.94;5075078;28;19945;-86
2022/05/24 01:27:30;;;;;;;;;;;;;;;23.20;48.50;99979.69;5076165;28;19917;-86
2022/05/24 01:29:56;;;;;;;;;;;;;;;23.19;48.15;99962.34;5076773;28;20299;-85
2022/05/24 01:37:49;;;;;;;;;;;;;;;23.19;48.47;99987.16;5077496;28;19949;-86
2022/05/24 01:40:14;;;;;;;;;;;;;;;23.19;48.01;99989.09;5077154;28;20041;-86
2022/05/24 01:42:39;;;;;;;;;;;;;;;23.18;48.47;99991.03;5076395;28;19951;-86
2022/05/24 01:45:09;;;;;;;;;;;;;;;23.18;48.19;99995.75;5076943;28;19931;-87
2022/05/24 01:47:35;;;;;;;;;;;;;;;23.17;48.45;99992.19;5078508;28;20050;-86
2022/05/24 01:50:06;;;;;;;;;;;;;;;23.18;48.30;99979.22;5075911;28;20403;-87
2022/05/24 01:52:38;;;;;;;;;;;;;;;23.16;48.31;99976.84;5076248;28;20389;-85
2022/05/24 01:55:06;;;;;;;;;;;;;;;23.17;48.24;99977.63;5075864;28;19944;-85
2022/05/24 01:57:34;;;;;;;;;;;;;;;23.16;48.24;99976.84;5075156;28;19928;-86
2022/05/24 02:00:00;;;;;;;;;;;;;;;23.16;48.34;99981.50;5076794;28;19934;-86
2022/05/24 02:02:26;;;;;;;;;;;;;;;23.16;48.41;99978.75;5076231;28;19928;-84
2022/05/24 02:04:51;;;;;;;;;;;;;;;23.16;48.35;99971.31;5076659;28;19917;-86
2022/05/24 02:07:19;;;;;;;;;;;;;;;23.16;48.29;99976.00;5076593;28;19927;-87
2022/05/24 02:09:46;;;;;;;;;;;;;;;23.15;48.28;99975.22;5074852;28;19996;-86
2022/05/24 02:12:14;;;;;;;;;;;;;;;23.15;48.34;99977.16;5075225;28;19924;-86
2022/05/24 02:14:42;;;;;;;;;;;;;;;23.14;48.26;99976.38;5074816;28;19916;-86
2022/05/24 02:17:11;;;;;;;;;;;;;;;23.15;48.22;99982.69;5075134;28;19967;-85
2022/05/24 02:19:41;;;;;;;;;;;;;;;23.13;47.93;99979.47;5075985;28;20287;-86
2022/05/24 02:22:08;;;;;;;;;;;;;;;23.13;48.21;99980.25;5075382;28;20330;-86
2022/05/24 02:24:34;;;;;;;;;;;;;;;23.13;47.85;99968.44;5074955;28;20035;-86
2022/05/24 02:26:59;;;;;;;;;;;;;;;23.12;48.27;99981.41;5074949;28;20040;-86
2022/05/24 02:29:25;;;;;;;;;;;;;;;23.12;48.33;99986.94;5075032;28;19942;-86
2022/05/24 02:31:50;;;;;;;;;;;;;;;23.11;48.26;99991.63;5074760;28;20481;-85
2022/05/24 02:34:16;;;;;;;;;;;;;;;23.13;48.10;99998.75;5076063;28;19921;-86
2022/05/24 02:36:41;;;;;;;;;;;;;;;23.11;48.15;100004.63;5074211;28;19954;-86
2022/05/24 02:39:06;;;;;;;;;;;;;;;23.11;48.10;100005.41;5074794;28;20007;-86
2022/05/24 02:41:32;;;;;;;;;;;;;;;23.11;48.11;100007.38;5057768;28;19927;-86
2022/05/24 02:44:04;;;;;;;;;;;;;;;23.11;48.24;99990.84;5075903;28;19932;-86
2022/05/24 02:46:30;;;;;;;;;;;;;;;23.10;48.21;99992.75;5075309;28;19956;-84
2022/05/24 02:48:56;;;;;;;;;;;;;;;23.09;47.83;99991.19;5075102;28;19920;-86
2022/05/24 02:51:21;;;;;;;;;;;;;;;23.09;48.09;99984.88;5074744;28;19950;-86
2022/05/24 02:53:47;;;;;;;;;;;;;;;23.09;47.80;99982.13;5075247;28;19966;-86
2022/05/24 02:56:13;;;;;;;;;;;;;;;23.09;48.20;99985.66;5058318;28;20379;-86
2022/05/24 02:58:38;;;;;;;;;;;;;;;23.09;47.82;99987.63;5074268;28;19960;-86
2022/05/24 03:01:11;;;;;;;;;;;;;;;23.08;48.15;99992.34;5075867;28;19927;-86
2022/05/24 03:03:36;;;;;;;;;;;;;;;23.08;47.77;99997.00;5075441;28;19916;-86
2022/05/24 03:06:01;;;;;;;;;;;;;;;23.08;48.00;99997.00;5076024;28;19976;-89
2022/05/24 03:11:11;;;;;;;;;;;;;;;23.08;48.13;99991.50;5075530;28;19927;-87
2022/05/24 03:16:20;;;;;;;;;;;;;;;23.07;48.10;100003.69;5074638;28;19928;-86
2022/05/24 03:18:45;;;;;;;;;;;;;;;23.06;47.76;100013.91;5073990;28;19921;-86
2022/05/24 03:21:11;;;;;;;;;;;;;;;23.06;48.14;100010.34;5073863;28;19998;-86
2022/05/24 03:23:36;;;;;;;;;;;;;;;23.06;48.07;100019.41;5074108;28;19942;-86
2022/05/24 03:26:02;;;;;;;;;;;;;;;23.05;48.06;100012.28;5057396;28;20263;-86
2022/05/24 03:28:27;;;;;;;;;;;;;;;23.05;47.67;100006.78;5074021;28;19943;-86
2022/05/24 03:30:53;;;;;;;;;;;;;;;23.05;47.76;100003.22;5075363;28;19949;-85
2022/05/24 03:33:18;;;;;;;;;;;;;;;23.05;48.00;100011.47;5073889;28;19942;-85
2022/05/24 03:35:44;;;;;;;;;;;;;;;23.05;48.00;100008.72;5073821;28;19921;-85
2022/05/24 03:38:09;;;;;;;;;;;;;;;23.04;48.04;100018.16;5073362;28;19950;-86
2022/05/24 03:40:35;;;;;;;;;;;;;;;23.04;48.09;100018.94;5076078;28;19917;-83
2022/05/24 03:43:01;;;;;;;;;;;;;;;23.04;47.63;100016.19;5073446;28;19924;-85
2022/05/24 03:45:27;;;;;;;;;;;;;;;23.03;47.94;100016.53;5074701;28;19931;-86
2022/05/24 03:47:52;;;;;;;;;;;;;;;23.03;47.56;99998.06;5073668;28;19935;-85
2022/05/24 03:50:18;;;;;;;;;;;;;;;23.02;47.88;100004.72;5057104;28;20257;-85
2022/05/24 03:52:43;;;;;;;;;;;;;;;23.03;47.52;100016.53;5056461;28;20299;-85
2022/05/24 03:55:08;;;;;;;;;;;;;;;23.02;47.86;100018.50;5073463;28;19935;-85
2022/05/24 04:00:18;;;;;;;;;;;;;;;23.02;47.92;100017.69;5073798;28;20413;-86
2022/05/24 04:02:44;;;;;;;;;;;;;;;23.02;47.97;100029.50;5073908;28;20333;-85
2022/05/24 04:05:09;;;;;;;;;;;;;;;23.01;47.99;100027.91;5073087;28;19933;-84
2022/05/24 04:07:36;;;;;;;;;;;;;;;23.01;47.97;100032.63;5073362;28;20017;-84
2022/05/24 04:10:01;;;;;;;;;;;;;;;23.01;47.67;100049.16;5073000;28;19949;-85
2022/05/24 04:12:27;;;;;;;;;;;;;;;23.01;47.94;100062.91;5074297;28;20284;-85
2022/05/24 04:14:52;;;;;;;;;;;;;;;23.01;47.82;100054.66;5073166;28;20016;-85
2022/05/24 04:17:17;;;;;;;;;;;;;;;23.02;47.95;100053.50;5056302;28;19982;-84
2022/05/24 04:19:43;;;;;;;;;;;;;;;23.00;47.52;100031.00;5074882;28;19977;-84
2022/05/24 04:22:08;;;;;;;;;;;;;;;23.00;47.92;100034.53;5073365;28;20406;-85
2022/05/24 04:24:33;;;;;;;;;;;;;;;23.00;47.93;100025.50;5072951;28;20394;-85
2022/05/24 04:26:58;;;;;;;;;;;;;;;22.99;47.80;100021.94;5074162;28;19931;-86
2022/05/24 04:29:24;;;;;;;;;;;;;;;22.99;47.87;100023.88;5056107;28;20005;-86
2022/05/24 04:31:49;;;;;;;;;;;;;;;22.99;47.71;100026.66;5056114;28;20360;-85
2022/05/24 04:34:14;;;;;;;;;;;;;;;22.99;47.88;100052.22;5072745;28;19920;-84
2022/05/24 04:36:39;;;;;;;;;;;;;;;22.98;47.39;100061.66;5072609;28;19930;-83
2022/05/24 04:39:05;;;;;;;;;;;;;;;22.99;47.70;100067.97;5072680;28;19921;-85
2022/05/24 04:44:14;;;;;;;;;;;;;;;22.98;47.80;100067.16;5074788;28;19963;-86
2022/05/24 04:49:23;;;;;;;;;;;;;;;22.98;47.88;100049.81;5073843;28;19938;-85
2022/05/24 04:51:51;;;;;;;;;;;;;;;22.98;47.83;100047.06;5072475;28;19921;-85
2022/05/24 04:54:16;;;;;;;;;;;;;;;22.98;47.76;100055.31;5072500;28;20466;-85
2022/05/24 04:56:42;;;;;;;;;;;;;;;22.98;47.39;100071.84;5072131;28;19968;-85
2022/05/24 04:59:07;;;;;;;;;;;;;;;22.98;47.37;100091.13;5074359;28;20386;-85
2022/05/24 05:01:32;;;;;;;;;;;;;;;22.97;47.83;100090.31;5076548;28;20268;-85
2022/05/24 05:03:57;;;;;;;;;;;;;;;22.98;47.74;100104.88;5076483;28;19946;-85
2022/05/24 05:06:23;;;;;;;;;;;;;;;22.98;47.78;100107.66;5076484;28;19992;-86
2022/05/24 05:08:48;;;;;;;;;;;;;;;22.97;47.81;100097.75;5076678;28;19920;-86
2022/05/24 05:11:13;;;;;;;;;;;;;;;22.98;47.71;100102.13;5076297;28;20405;-86
2022/05/24 05:13:38;;;;;;;;;;;;;;;22.97;47.79;100103.25;5077546;28;19920;-85
2022/05/24 05:16:04;;;;;;;;;;;;;;;22.96;47.54;100102.47;5076835;28;19971;-85
2022/05/24 05:18:29;;;;;;;;;;;;;;;22.96;47.35;100096.97;5076356;28;19928;-85
2022/05/24 05:20:54;;;;;;;;;;;;;;;22.96;47.70;100098.91;5076206;28;19927;-84
2022/05/24 05:23:20;;;;;;;;;;;;;;;22.96;47.83;100110.72;5077590;28;19952;-88
2022/05/24 05:25:48;;;;;;;;;;;;;;;22.96;47.67;100107.97;5076143;28;19938;-87
2022/05/24 05:28:15;;;;;;;;;;;;;;;22.97;47.79;100115.13;5076860;28;19947;-87
2022/05/24 05:33:24;;;;;;;;;;;;;;;22.97;47.83;100128.88;5076353;28;19993;-94
2022/05/24 05:35:50;;;;;;;;;;;;;;;22.97;47.59;100120.63;5075447;28;19930;-82
2022/05/24 05:38:15;;;;;;;;;;;;;;;22.98;47.55;100125.00;5076772;28;19993;-83
2022/05/24 05:40:41;;;;;;;;;;;;;;;22.99;47.62;100132.09;5076161;28;20022;-80
2022/05/24 05:43:07;;;;;;;;;;;;;;;23.00;47.88;100130.94;5076919;28;19961;-82
2022/05/24 05:45:32;;;;;;;;;;;;;;;23.01;47.95;100135.31;5075853;28;19921;-86
2022/05/24 05:47:58;;;;;;;;;;;;;;;23.02;47.99;100131.41;5060314;28;19966;-86
2022/05/24 05:50:23;;;;;;;;;;;;;;;23.03;48.16;100134.97;5075748;28;19959;-91
2022/05/24 05:52:50;;;;;;;;;;;;;;;23.03;48.00;100143.22;5075962;28;20364;-87
2022/05/24 05:55:15;;;;;;;;;;;;;;;23.05;47.76;100140.94;5059101;28;19938;-88
2022/05/24 05:57:40;;;;;;;;;;;;;;;23.05;47.85;100143.69;5075379;28;20099;-87
2022/05/24 06:00:08;;;;;;;;;;;;;;;23.05;48.21;100155.50;5075503;28;19944;-87
2022/05/24 06:02:33;;;;;;;;;;;;;;;23.05;48.23;100143.69;5075369;28;19952;-88
2022/05/24 06:04:58;;;;;;;;;;;;;;;23.06;48.24;100150.84;5058990;28;19958;-87
2022/05/24 06:07:24;;;;;;;;;;;;;;;23.06;48.28;100150.84;5076112;28;19945;-88
2022/05/24 06:09:49;;;;;;;;;;;;;;;23.06;48.21;100148.88;5075289;28;20349;-87
2022/05/24 06:12:15;;;;;;;;;;;;;;;23.07;48.22;100149.69;5075929;28;19925;-81
2022/05/24 06:14:40;;;;;;;;;;;;;;;23.06;48.30;100140.63;5058646;28;20329;-84
2022/05/24 06:17:05;;;;;;;;;;;;;;;23.07;48.19;100146.94;5074976;28;19924;-86
2022/05/24 06:19:31;;;;;;;;;;;;;;;23.07;48.19;100144.97;5075028;28;19931;-83
2022/05/24 06:21:56;;;;;;;;;;;;;;;23.09;48.29;100147.41;5074947;28;19933;-82
2022/05/24 06:24:21;;;;;;;;;;;;;;;23.08;48.22;100157.63;5074761;28;20021;-82
2022/05/24 06:26:47;;;;;;;;;;;;;;;23.09;48.20;100155.66;5057657;28;19939;-85
2022/05/24 06:29:12;;;;;;;;;;;;;;;23.11;47.80;100165.19;5075477;28;20340;-82
2022/05/24 06:31:38;;;;;;;;;;;;;;;23.12;48.31;100166.00;5058129;28;19961;-86
2022/05/24 06:34:03;;;;;;;;;;;;;;;23.13;47.98;100169.53;5074892;28;19933;-84
2022/05/24 06:36:28;;;;;;;;;;;;;;;23.13;48.27;100167.59;5074697;28;19988;-80
2022/05/24 06:38:53;;;;;;;;;;;;;;;23.15;48.12;100170.81;5076099;28;19924;-82
2022/05/24 06:41:19;;;;;;;;;;;;;;;23.16;47.79;100177.94;5074803;28;20052;-81
2022/05/24 06:43:44;;;;;;;;;;;;;;;23.16;47.84;100174.34;5074885;28;20300;-85
2022/05/24 06:46:09;;;;;;;;;;;;;;;23.16;47.68;100191.72;5057513;28;19916;-89
2022/05/24 06:48:35;;;;;;;;;;;;;;;23.17;47.80;100185.06;5075174;28;19923;-89
2022/05/24 06:51:02;;;;;;;;;;;;;;;23.17;47.76;100190.56;5059105;28;20023;-89
2022/05/24 06:53:27;;;;;;;;;;;;;;;23.18;48.02;100186.66;5076586;28;19916;-89
2022/05/24 06:55:52;;;;;;;;;;;;;;;23.17;48.25;100196.06;5077056;28;19924;-86
2022/05/24 06:58:18;;;;;;;;;;;;;;;23.17;48.24;100201.59;5074840;28;19997;-81
2022/05/24 07:03:27;;;;;;;;;;;;;;;23.18;48.27;100203.19;5077902;28;19994;-89
2022/05/24 07:05:53;;;;;;;;;;;;;;;23.18;47.77;100205.94;5078118;28;20344;-90
2022/05/24 07:08:18;;;;;;;;;;;;;;;23.20;48.13;100211.13;5080497;28;19920;-82
2022/05/24 07:10:43;;;;;;;;;;;;;;;23.20;47.77;100211.91;5073909;28;19990;-89
2022/05/24 07:13:11;;;;;;;;;;;;;;;23.20;47.77;100211.91;5057573;28;20292;-87
2022/05/24 07:15:37;;;;;;;;;;;;;;;23.20;47.80;100211.91;5075305;28;19934;-88
2022/05/24 07:18:02;;;;;;;;;;;;;;;23.20;47.92;100220.19;5074175;28;19947;-86
2022/05/24 07:20:28;;;;;;;;;;;;;;;23.21;47.69;100218.22;5074147;28;19920;-85
2022/05/24 07:22:54;;;;;;;;;;;;;;;23.22;47.90;100230.88;5073148;28;20000;-88
2022/05/24 07:25:20;;;;;;;;;;;;;;;23.22;48.05;100217.09;5057558;28;20339;-91
2022/05/24 07:27:45;;;;;;;;;;;;;;;23.21;47.71;100227.31;5073835;28;19967;-85
2022/05/24 07:30:10;;;;;;;;;;;;;;;23.21;47.83;100224.56;5074002;28;19921;-88
2022/05/24 07:32:36;;;;;;;;;;;;;;;23.22;47.94;100222.59;5057196;28;19954;-85
2022/05/24 07:35:02;;;;;;;;;;;;;;;23.22;47.45;100241.91;5076763;28;19945;-86
2022/05/24 07:37:27;;;;;;;;;;;;;;;23.21;47.52;100230.06;5083966;28;19943;-90
2022/05/24 07:45:48;;;;;;;;;;;;;;;23.22;47.81;100237.19;5064189;28;19970;-83
2022/05/24 07:48:06;;;;;;;;;;;;;;;23.23;47.54;100241.53;5075922;28;19965;-88
2022/05/24 07:50:31;;;;;;;;;;;;;;;23.24;47.37;100245.13;5058282;28;19921;-90
2022/05/24 07:52:57;;;;;;;;;;;;;;;23.25;47.30;100244.75;5074121;28;19920;-85
2022/05/24 07:55:22;;;;;;;;;;;;;;;23.25;47.62;100252.22;5073281;28;19946;-86
2022/05/24 07:57:47;;;;;;;;;;;;;;;23.26;47.47;100251.91;5074534;28;19921;-84
2022/05/24 08:00:13;;;;;;;;;;;;;;;23.26;47.39;100253.84;5074602;28;19970;-91
2022/05/24 08:02:38;;;;;;;;;;;;;;;23.26;47.21;100257.41;5074565;28;20023;-87
2022/05/24 08:05:04;;;;;;;;;;;;;;;23.27;47.63;100249.94;5074404;28;19934;-83
2022/05/24 08:07:30;;;;;;;;;;;;;;;23.26;47.51;100260.16;5072809;28;19987;-87
2022/05/24 08:09:55;;;;;;;;;;;;;;;23.27;47.04;100267.28;5072723;28;19953;-86
2022/05/24 08:12:20;;;;;;;;;;;;;;;23.27;47.22;100267.28;5074263;28;20303;-85
2022/05/24 08:14:46;;;;;;;;;;;;;;;23.27;46.96;100283.81;5073433;28;19962;-89
2022/05/24 08:17:11;;;;;;;;;;;;;;;23.27;47.07;100275.53;5072556;28;19950;-84
2022/05/24 08:19:37;;;;;;;;;;;;;;;23.27;47.39;100286.56;5072670;28;19931;-89
2022/05/24 08:22:02;;;;;;;;;;;;;;;23.27;47.19;100286.56;5074229;28;19942;-90
2022/05/24 08:24:27;;;;;;;;;;;;;;;23.28;47.27;100299.22;5074772;28;19951;-85
2022/05/24 08:26:52;;;;;;;;;;;;;;;23.28;46.83;100303.91;5073901;28;20007;-85
2022/05/24 08:29:18;;;;;;;;;;;;;;;23.27;47.14;100305.84;5055590;28;19989;-79
2022/05/24 08:31:43;;;;;;;;;;;;;;;23.28;47.21;100317.69;5073239;28;19950;-85
2022/05/24 08:34:08;;;;;;;;;;;;;;;23.29;47.19;100319.31;5073799;28;20288;-88
2022/05/24 08:36:35;;;;;;;;;;;;;;;23.29;47.21;100319.31;5072774;28;20041;-86
2022/05/24 08:39:01;;;;;;;;;;;;;;;23.29;46.76;100322.06;5072882;28;20386;-88
2022/05/24 08:41:44;;;;;;;;;;;;;;;23.30;47.06;100326.41;5072994;28;19932;-87
2022/05/24 08:49:55;;;;;;;;;;;;;;;23.28;47.00;100332.28;5073477;28;19984;-83
2022/05/24 08:52:22;;;;;;;;;;;;;;;23.27;46.53;100333.41;5073334;28;20315;-85
2022/05/24 08:54:47;;;;;;;;;;;;;;;23.26;46.83;100342.84;5072303;28;19944;-84
2022/05/24 08:57:25;;;;;;;;;;;;;;;23.25;46.59;100343.16;5071814;28;19970;-86
2022/05/24 08:59:56;;;;;;;;;;;;;;;23.24;46.81;100355.34;5073853;28;20011;-85
2022/05/24 09:02:21;;;;;;;;;;;;;;;23.22;46.58;100350.16;5071915;28;19931;-83
2022/05/24 09:04:47;;;;;;;;;;;;;;;23.20;46.70;100360.69;5073772;28;19984;-92
2022/05/24 09:07:26;;;;;;;;;;;;;;;23.19;46.20;100369.31;5073656;28;19935;-87
2022/05/24 09:10:00;;;;;;;;;;;;;;;23.18;46.65;100373.19;5074070;28;19967;-94
2022/05/24 09:12:25;;;;;;;;;;;;;;;23.15;46.53;100374.69;5073554;28;20036;-94
2022/05/24 09:15:09;;;;;;;;;;;;;;;23.15;46.18;100377.44;5073205;28;20320;-88
2022/05/24 09:17:43;;;;;;;;;;;;;;;23.13;46.55;100374.22;5072862;28;19924;-95
2022/05/24 09:20:33;;;;;;;;;;;;;;;23.13;46.21;100376.16;5074098;28;19931;-89
2022/05/24 09:23:20;;;;;;;;;;;;;;;23.11;46.45;100377.31;5065102;28;19931;-87
2022/05/24 09:25:59;;;;;;;;;;;;;;;23.10;46.06;100375.69;5074038;28;19953;-86
2022/05/24 09:28:43;;;;;;;;;;;;;;;23.09;46.43;100368.56;5073635;28;19925;-80
2022/05/24 09:31:09;;;;;;;;;;;;;;;23.09;46.31;100378.78;5073081;28;19950;-82
2022/05/24 09:33:39;;;;;;;;;;;;;;;23.08;46.38;100383.50;5072029;28;19931;-82
2022/05/24 09:36:04;;;;;;;;;;;;;;;23.08;45.97;100385.44;5073046;28;19980;-83
2022/05/24 09:38:34;;;;;;;;;;;;;;;23.08;45.97;100390.94;5073117;28;19920;-82
2022/05/24 09:41:08;;;;;;;;;;;;;;;23.06;46.17;100396.00;5071610;28;20015;-82
2022/05/24 09:43:35;;;;;;;;;;;;;;;23.06;46.12;100393.25;5072186;28;20074;-81
2022/05/24 09:46:05;;;;;;;;;;;;;;;23.05;46.00;100397.13;5074589;28;19946;-80
2022/05/24 09:48:32;;;;;;;;;;;;;;;23.04;45.73;100399.09;5076642;28;19927;-85
2022/05/24 09:50:58;;;;;;;;;;;;;;;23.03;45.59;100403.00;5075714;28;19946;-82
2022/05/24 09:53:30;;;;;;;;;;;;;;;23.01;45.47;100408.03;5076125;28;19999;-90
2022/05/24 09:56:01;;;;;;;;;;;;;;;23.00;45.78;100411.09;5076298;28;19916;-88
2022/05/24 09:58:28;;;;;;;;;;;;;;;22.98;45.33;100405.94;5074971;28;20386;-88
2022/05/24 10:00:57;;;;;;;;;;;;;;;22.96;45.68;100412.91;5075339;28;19935;-84
2022/05/24 10:03:25;;;;;;;;;;;;;;;22.95;45.25;100414.03;5075218;28;20425;-84
2022/05/24 10:06:13;;;;;;;;;;;;;;;22.93;45.50;100421.81;5074928;28;19972;-83
2022/05/24 10:08:59;;;;;;;;;;;;;;;22.86;45.43;100423.16;5067031;28;19955;-81
2022/05/24 10:11:33;;;;;;;;;;;;;;;22.82;45.54;100429.66;5073974;28;20334;-79
2022/05/24 10:14:02;;;;;;;;;;;;;;;22.76;45.04;100429.03;5075112;28;19925;-80
2022/05/24 10:16:35;;;;;;;;;;;;;;;22.74;45.22;100436.03;5075882;28;19950;-82
2022/05/24 10:19:06;;;;;;;;;;;;;;;22.73;45.42;100437.97;5076719;28;19942;-82
2022/05/24 10:21:50;;;;;;;;;;;;;;;22.73;44.95;100439.91;5075193;28;19946;-82
2022/05/24 10:24:29;;;;;;;;;;;;;;;22.70;45.37;100435.88;5074727;28;19923;-84
2022/05/24 10:27:23;;;;;;;;;;;;;;;22.71;45.30;100434.75;5077091;28;20416;-82
2022/05/24 10:29:54;;;;;;;;;;;;;;;22.70;45.24;100433.09;5040720;28;19928;-81
2022/05/24 10:38:24;;;;;;;;;;;;;;;22.65;45.02;100445.16;5076333;28;20068;-84
2022/05/24 10:41:03;;;;;;;;;;;;;;;22.65;45.07;100441.56;5074619;28;20028;-82
2022/05/24 10:43:41;;;;;;;;;;;;;;;22.63;45.08;100450.16;5075834;28;19928;-84
2022/05/24 10:46:10;;;;;;;;;;;;;;;22.63;45.19;100450.16;5074291;28;19946;-83
2022/05/24 10:48:47;;;;;;;;;;;;;;;22.62;45.13;100456.78;5074485;28;19938;-83
2022/05/24 10:51:12;;;;;;;;;;;;;;;22.61;45.11;100449.69;5075049;28;20339;-85
2022/05/24 10:53:43;;;;;;;;;;;;;;;22.61;45.04;100435.91;5075636;28;20360;-82
2022/05/24 10:56:18;;;;;;;;;;;;;;;22.58;44.72;100446.75;5074110;28;20275;-82
2022/05/24 10:58:43;;;;;;;;;;;;;;;22.53;44.58;100458.78;5073863;28;20007;-81
2022/05/24 11:01:15;;;;;;;;;;;;;;;22.50;44.96;100459.44;5073730;28;20317;-84
2022/05/24 11:03:45;;;;;;;;;;;;;;;22.43;44.69;100456.41;5075594;28;19924;-82
2022/05/24 11:06:15;;;;;;;;;;;;;;;22.40;44.54;100457.88;5075521;28;19927;-81
2022/05/24 11:08:46;;;;;;;;;;;;;;;22.41;44.45;100456.72;5075465;28;19926;-82
2022/05/24 11:11:30;;;;;;;;;;;;;;;22.41;44.41;100458.69;5073749;28;19923;-80
2022/05/24 11:14:14;;;;;;;;;;;;;;;22.40;44.36;100455.13;5075464;28;19917;-82
2022/05/24 11:16:49;;;;;;;;;;;;;;;22.40;44.26;100448.78;5075495;28;19951;-87
2022/05/24 11:20:39;;;;;;;;;;;;;;;22.42;44.55;100450.06;5079876;27;2019983;-80
2022/05/24 11:23:10;;;;;;;;;;;;;;;22.43;44.51;100459.97;5144104;27;20023;-81
2022/05/24 11:25:43;;;;;;;;;;;;;;;22.35;44.00;100455.31;5148642;27;19963;-78
2022/05/24 11:28:14;;;;;;;;;;;;;;;22.27;44.07;100460.81;5127669;27;19920;-82
2022/05/24 11:30:41;;;;;;;;;;;;;;;22.25;43.97;100456.47;5151515;27;19935;-80
2022/05/24 11:33:10;;;;;;;;;;;;;;;22.28;44.14;100470.72;5146964;27;19938;-81
2022/05/24 11:35:41;;;;;;;;;;;;;;;22.30;43.96;100466.50;5122595;27;20424;-81
2022/05/24 11:38:26;;;;;;;;;;;;;;;22.33;43.84;100467.78;5128399;27;19967;-79
2022/05/24 11:40:57;;;;;;;;;;;;;;;22.35;43.74;100476.50;5112423;27;19925;-78
2022/05/24 11:43:34;;;;;;;;;;;;;;;22.31;44.12;100483.81;5125822;27;20167;-79
2022/05/24 11:46:04;;;;;;;;;;;;;;;22.27;43.89;100502.09;5127526;27;19944;-80
2022/05/24 11:48:41;;;;;;;;;;;;;;;22.26;44.00;100498.53;5144843;27;19949;-80
2022/05/24 11:51:25;;;;;;;;;;;;;;;22.28;44.10;100500.97;5126581;27;19938;-81
2022/05/24 11:53:50;;;;;;;;;;;;;;;22.30;43.75;100512.44;5126047;27;20376;-80
2022/05/24 11:56:17;;;;;;;;;;;;;;;22.30;43.84;100521.53;5106561;27;19920;-81
2022/05/24 11:58:47;;;;;;;;;;;;;;;22.25;44.02;100521.66;5127138;27;20363;-78
2022/05/24 12:01:15;;;;;;;;;;;;;;;22.24;44.26;100517.31;5125500;27;20008;-80
2022/05/24 12:09:55;;;;;;;;;;;;;;;22.28;43.94;100536.75;5131826;27;19919;-78
2022/05/24 12:12:32;;;;;;;;;;;;;;;22.29;44.36;100544.66;5118213;27;19974;-78
2022/05/24 12:15:05;;;;;;;;;;;;;;;22.30;44.38;100560.03;5128718;27;20331;-78
2022/05/24 12:17:30;;;;;;;;;;;;;;;22.30;44.24;100554.53;5141000;27;19923;-78
2022/05/24 12:19:56;;;;;;;;;;;;;;;22.31;44.10;100555.34;5130410;27;20432;-77
2022/05/24 12:22:22;;;;;;;;;;;;;;;22.31;44.43;100550.63;5110853;27;19924;-78
2022/05/24 12:24:52;;;;;;;;;;;;;;;22.32;44.27;100552.25;5130499;27;19916;-77
2022/05/24 12:27:36;;;;;;;;;;;;;;;22.33;44.41;100556.63;5147099;27;19926;-78
2022/05/24 12:30:16;;;;;;;;;;;;;;;22.33;44.14;100553.06;5134438;27;19926;-77
2022/05/24 12:32:41;;;;;;;;;;;;;;;22.34;44.16;100549.19;5133897;27;20010;-77
2022/05/24 12:35:09;;;;;;;;;;;;;;;22.34;44.07;100552.72;5116349;27;20437;-76
2022/05/24 12:37:35;;;;;;;;;;;;;;;22.34;44.10;100562.94;5143376;27;20017;-77
2022/05/24 12:40:09;;;;;;;;;;;;;;;22.31;44.39;100558.91;5132314;27;19981;-75
2022/05/24 12:42:41;;;;;;;;;;;;;;;22.26;44.12;100553.56;5128375;27;20654;-75
2022/05/24 12:45:07;;;;;;;;;;;;;;;22.20;44.04;100563.09;5122742;27;20010;-76
2022/05/24 12:47:32;;;;;;;;;;;;;;;22.14;44.25;100561.63;5132682;27;20022;-75
2022/05/24 12:49:59;;;;;;;;;;;;;;;22.11;44.32;100556.78;5125768;27;19962;-75
2022/05/24 12:52:28;;;;;;;;;;;;;;;22.09;44.25;100554.34;5125213;27;20371;-75
2022/05/24 12:54:55;;;;;;;;;;;;;;;22.11;44.18;100556.78;5100944;28;19919;-75
2022/05/24 12:57:28;;;;;;;;;;;;;;;22.08;44.18;100551.94;5114019;27;19927;-76
2022/05/24 12:59:57;;;;;;;;;;;;;;;22.08;43.83;100552.75;5135204;27;19984;-76
2022/05/24 13:02:37;;;;;;;;;;;;;;;22.08;44.16;100552.75;5122510;27;19919;-76
2022/05/24 13:05:21;;;;;;;;;;;;;;;22.10;43.83;100557.91;5142722;27;19919;-76
2022/05/24 13:07:46;;;;;;;;;;;;;;;22.09;44.12;100559.84;5129368;27;19966;-76
2022/05/24 13:10:24;;;;;;;;;;;;;;;22.11;43.91;100560.34;5127366;27;19957;-77
2022/05/24 13:12:51;;;;;;;;;;;;;;;22.12;43.83;100555.66;5117656;27;20932;-76
2022/05/24 13:15:18;;;;;;;;;;;;;;;22.13;43.87;100558.09;5114256;27;19924;-77
2022/05/24 13:17:44;;;;;;;;;;;;;;;22.11;44.14;100551.28;5104528;27;19920;-77
2022/05/24 13:20:11;;;;;;;;;;;;;;;22.09;44.11;100557.09;5133654;27;19945;-76
2022/05/24 13:22:39;;;;;;;;;;;;;;;22.10;44.15;100556.00;5110954;27;19981;-76
2022/05/24 13:25:09;;;;;;;;;;;;;;;22.11;44.07;100563.09;5110963;27;20286;-76
2022/05/24 13:27:51;;;;;;;;;;;;;;;22.11;43.78;100567.78;5128723;27;20393;-76
2022/05/24 13:35:49;;;;;;;;;;;;;;;22.11;44.06;100585.09;5129558;27;19973;-76
2022/05/24 13:38:20;;;;;;;;;;;;;;;22.11;44.01;100581.53;5123490;27;19968;-77
2022/05/24 13:40:53;;;;;;;;;;;;;;;22.13;43.67;100590.28;5137308;27;19934;-76